createdAt,value
2019-01-25T00:01:15.690Z,68.80
2019-01-25T00:06:37.881Z,64.60
2019-01-25T00:12:00.231Z,83.83
2019-01-25T00:17:22.382Z,73.33
2019-01-25T00:22:44.596Z,82.77
2019-01-25T00:28:06.793Z,60.17
2019-01-25T00:33:09.481Z,62.33
2019-01-25T00:38:12.156Z,77.83
2019-01-25T00:43:14.836Z,60.43
2019-01-25T00:48:37.006Z,65.83
2019-01-25T00:53:59.203Z,62.43
2019-01-25T00:59:21.385Z,75.20
2019-01-25T01:04:43.563Z,59.93
2019-01-25T01:09:58.472Z,57.70
2019-01-25T01:15:01.126Z,69.10
2019-01-25T01:20:23.351Z,63.83
2019-01-25T01:25:45.531Z,68.13
2019-01-25T01:31:07.713Z,69.67
2019-01-25T01:36:29.927Z,63.63
2019-01-25T01:47:02.309Z,69.03
2019-01-25T01:52:24.468Z,73.47
2019-01-25T01:57:46.721Z,65.90
2019-01-25T02:03:08.886Z,65.20
2019-01-25T02:08:24.413Z,81.87
2019-01-25T02:13:46.599Z,78.10
2019-01-25T02:19:08.784Z,74.70
2019-01-25T02:24:50.497Z,81.87
2019-01-25T02:30:15.672Z,73.43
2019-01-25T02:35:37.948Z,66.83
2019-01-25T02:41:00.129Z,73.13
2019-01-25T02:46:02.898Z,60.40
2019-01-25T02:51:05.633Z,71.20
2019-01-25T02:56:48.119Z,62.53
2019-01-25T03:02:10.380Z,71.80
2019-01-25T03:07:26.115Z,64.83
2019-01-25T03:12:49.249Z,64.37
2019-01-25T03:18:04.410Z,59.20
2019-01-25T03:23:07.181Z,67.00
2019-01-25T03:28:29.360Z,68.40
2019-01-25T03:33:51.553Z,66.00
2019-01-25T03:39:13.726Z,73.07
2019-01-25T03:44:28.996Z,73.57
2019-01-25T03:49:51.365Z,72.73
2019-01-25T03:55:13.767Z,67.83
2019-01-25T04:00:35.975Z,58.40
2019-01-25T04:05:58.139Z,71.97
2019-01-25T04:11:13.040Z,63.60
2019-01-25T04:16:35.233Z,66.13
2019-01-25T04:21:57.433Z,66.03
2019-01-25T04:27:19.624Z,71.50
2019-01-25T04:32:41.804Z,71.93
2019-01-25T04:38:04.017Z,75.07
2019-01-25T04:43:26.202Z,61.30
2019-01-25T04:48:48.380Z,71.00
2019-01-25T04:54:10.557Z,64.13
2019-01-25T04:59:32.742Z,68.50
2019-01-25T05:04:54.925Z,66.00
2019-01-25T05:10:10.360Z,65.73
2019-01-25T05:15:32.550Z,64.87
2019-01-25T05:20:35.236Z,56.07
2019-01-25T05:25:57.422Z,61.80
2019-01-25T05:31:22.832Z,64.97
2019-01-25T05:36:45.025Z,52.20
2019-01-25T05:42:07.308Z,56.40
2019-01-25T05:47:29.506Z,61.87
2019-01-25T05:52:51.722Z,53.43
2019-01-25T05:58:00.098Z,46.13
2019-01-25T06:03:22.737Z,61.60
2019-01-25T06:08:32.464Z,54.93
2019-01-25T06:13:54.637Z,48.40
2019-01-25T06:19:16.819Z,48.83
2019-01-25T06:24:38.999Z,45.63
2019-01-25T06:30:01.288Z,58.30
2019-01-25T06:35:23.469Z,58.63
2019-01-25T06:40:45.650Z,66.83
2019-01-25T06:45:49.847Z,47.87
2019-01-25T06:51:12.399Z,54.83
2019-01-25T06:56:34.583Z,50.10
2019-01-25T07:02:16.369Z,47.37
2019-01-25T07:07:34.395Z,49.27
2019-01-25T07:12:56.602Z,47.47
2019-01-25T07:17:59.270Z,45.47
2019-01-25T07:23:21.468Z,42.57
2019-01-25T07:28:43.646Z,34.80
2019-01-25T07:34:05.832Z,33.43
2019-01-25T07:39:28.118Z,32.27
2019-01-25T07:44:50.366Z,36.20
2019-01-25T07:49:53.093Z,31.23
2019-01-25T07:54:55.740Z,38.00
2019-01-25T07:59:58.443Z,35.07
2019-01-25T08:05:20.624Z,38.17
2019-01-25T08:10:35.750Z,32.60
2019-01-25T08:15:58.067Z,39.50
2019-01-25T08:21:00.738Z,35.40
2019-01-25T08:26:22.940Z,44.80
2019-01-25T08:31:45.205Z,41.83
2019-01-25T08:37:07.385Z,38.77
2019-01-25T08:42:15.407Z,45.20
2019-01-25T08:47:14.732Z,43.70
2019-01-25T08:52:17.415Z,47.90
2019-01-25T08:57:20.113Z,41.27
2019-01-25T09:02:42.274Z,40.73
2019-01-25T09:07:57.772Z,44.87
2019-01-25T09:13:19.953Z,37.10
2019-01-25T09:18:42.137Z,38.83
2019-01-25T09:24:04.322Z,41.20
2019-01-25T09:29:07.012Z,48.83
2019-01-25T09:34:09.699Z,42.53
2019-01-25T09:39:12.378Z,42.67
2019-01-25T09:44:15.046Z,47.07
2019-01-25T09:49:37.231Z,49.20
2019-01-25T09:54:59.413Z,44.70
2019-01-25T10:00:46.287Z,45.60
2019-01-25T10:06:08.456Z,40.87
2019-01-25T10:11:24.062Z,40.57
2019-01-25T10:16:46.253Z,41.30
2019-01-25T10:21:48.928Z,41.03
2019-01-25T10:27:11.119Z,40.63
2019-01-25T10:32:13.798Z,43.47
2019-01-25T10:37:35.972Z,45.40
2019-01-25T10:42:58.152Z,38.50
2019-01-25T10:48:00.869Z,42.87
2019-01-25T10:53:44.367Z,30.50
2019-01-25T10:59:06.583Z,32.33
2019-01-25T11:04:28.773Z,42.10
2019-01-25T11:09:37.906Z,32.80
2019-01-25T11:14:56.979Z,34.13
2019-01-25T11:20:20.472Z,34.63
2019-01-25T11:25:42.674Z,39.90
2019-01-25T11:30:45.342Z,33.00
2019-01-25T11:36:07.557Z,35.73
2019-01-25T11:41:29.759Z,40.57
2019-01-25T11:46:51.938Z,37.93
2019-01-25T11:52:14.125Z,41.90
2019-01-25T11:57:36.305Z,40.77
2019-01-25T12:02:58.483Z,39.57
2019-01-25T12:08:13.551Z,39.57
2019-01-25T12:13:16.591Z,36.83
2019-01-25T12:18:19.384Z,29.73
2019-01-25T12:23:41.586Z,32.57
2019-01-25T12:28:44.263Z,32.00
2019-01-25T12:33:46.946Z,44.93
2019-01-25T12:39:09.398Z,32.07
2019-01-25T12:44:31.575Z,34.93
2019-01-25T12:49:53.766Z,33.13
2019-01-25T12:54:56.450Z,34.07
2019-01-25T13:00:40.156Z,35.67
2019-01-25T13:05:43.319Z,32.70
2019-01-25T13:11:00.501Z,32.80
2019-01-25T13:16:22.679Z,30.43
2019-01-25T13:21:25.366Z,32.80
2019-01-25T13:26:47.562Z,32.50
2019-01-25T13:32:14.442Z,33.60
2019-01-25T13:37:33.945Z,34.53
2019-01-25T13:42:36.713Z,44.30
2019-01-25T13:47:39.410Z,36.40
2019-01-25T13:52:42.110Z,32.93
2019-01-25T13:57:44.871Z,35.07
2019-01-25T14:02:47.545Z,36.10
2019-01-25T14:08:03.183Z,36.70
2019-01-25T14:13:05.953Z,44.03
2019-01-25T14:18:28.157Z,44.87
2019-01-25T14:23:50.350Z,34.10
2019-01-25T14:29:12.622Z,42.70
2019-01-25T14:34:34.825Z,39.47
2019-01-25T14:39:37.515Z,34.70
2019-01-25T14:44:59.705Z,33.80
2019-01-25T14:50:22.319Z,33.67
2019-01-25T14:55:44.500Z,28.57
2019-01-25T15:00:47.283Z,37.07
2019-01-25T15:06:09.472Z,30.30
2019-01-25T15:11:24.783Z,30.80
2019-01-25T15:16:46.970Z,33.53
2019-01-25T15:22:09.154Z,32.93
2019-01-25T15:27:11.825Z,28.97
2019-01-25T15:32:14.513Z,27.40
2019-01-25T15:37:36.693Z,25.50
2019-01-25T15:42:58.896Z,32.30
2019-01-25T15:48:21.078Z,34.23
2019-01-25T15:53:43.276Z,37.33
2019-01-25T15:59:05.502Z,28.37
2019-01-25T16:04:08.190Z,40.63
2019-01-25T16:09:23.696Z,42.93
2019-01-25T16:14:46.053Z,40.10
2019-01-25T16:20:10.129Z,44.33
2019-01-25T16:25:33.512Z,44.23
2019-01-25T16:30:55.705Z,40.00
2019-01-25T16:36:17.925Z,53.27
2019-01-25T16:41:40.108Z,47.73
2019-01-25T16:47:02.303Z,48.93
2019-01-25T16:52:25.492Z,67.93
2019-01-25T16:57:47.829Z,65.90
2019-01-25T17:03:10.816Z,56.63
2019-01-25T17:08:26.225Z,48.87
2019-01-25T17:13:48.406Z,56.47
2019-01-25T17:18:51.106Z,68.50
2019-01-25T17:24:13.287Z,61.13
2019-01-25T17:29:35.486Z,54.63
2019-01-25T17:34:57.740Z,60.07
2019-01-25T17:40:00.432Z,75.07
2019-01-25T17:45:22.648Z,83.87
2019-01-25T17:50:44.835Z,69.67
2019-01-25T17:56:07.244Z,64.17
2019-01-25T18:01:29.616Z,63.80
2019-01-25T18:06:53.164Z,60.53
2019-01-25T18:12:09.392Z,70.87
2019-01-25T18:17:51.588Z,58.83
2019-01-25T18:23:35.696Z,53.90
2019-01-25T18:29:19.738Z,59.27
2019-01-25T18:34:41.983Z,61.20
2019-01-25T18:40:07.256Z,59.53
2019-01-25T18:45:31.174Z,52.20
2019-01-25T18:50:54.297Z,57.00
2019-01-25T18:56:18.730Z,49.23
2019-01-25T19:01:41.837Z,51.40
2019-01-25T19:07:05.077Z,54.80
2019-01-25T19:12:21.514Z,57.70
2019-01-25T19:17:43.776Z,51.70
2019-01-25T19:23:05.960Z,49.30
2019-01-25T19:28:28.137Z,49.90
2019-01-25T19:33:30.948Z,47.73
2019-01-25T19:38:54.277Z,35.13
2019-01-25T19:44:16.550Z,53.53
2019-01-25T19:49:19.871Z,36.00
2019-01-25T19:54:42.620Z,43.30
2019-01-25T19:59:47.713Z,36.00
2019-01-25T20:05:11.720Z,32.10
2019-01-25T20:10:36.599Z,32.53
2019-01-25T20:15:59.983Z,33.63
2019-01-25T20:21:23.559Z,23.57
2019-01-25T20:26:46.681Z,27.03
2019-01-25T20:32:09.161Z,29.50
2019-01-25T20:37:31.972Z,17.37
2019-01-25T20:42:54.751Z,24.27
2019-01-25T20:48:16.979Z,23.37
2019-01-25T20:53:39.190Z,22.40
2019-01-25T20:59:01.401Z,17.60
2019-01-25T21:04:04.291Z,18.80
2019-01-25T21:09:09.644Z,20.67
2019-01-25T21:14:31.840Z,17.47
2019-01-25T21:19:54.037Z,15.33
2019-01-25T21:25:16.454Z,19.37
2019-01-25T21:30:38.760Z,16.10
2019-01-25T21:36:00.958Z,18.13
2019-01-25T21:41:23.142Z,12.00
2019-01-25T21:46:45.349Z,16.07
2019-01-25T21:51:48.403Z,17.60
2019-01-25T21:56:51.105Z,16.30
2019-01-25T22:07:09.968Z,16.87
2019-01-25T22:12:12.671Z,12.37
2019-01-25T22:17:34.877Z,16.83
2019-01-25T22:22:37.594Z,13.43
2019-01-25T22:27:59.790Z,10.37
2019-01-25T22:33:02.482Z,10.43
2019-01-25T22:38:24.870Z,14.67
2019-01-25T22:43:27.574Z,13.27
2019-01-25T22:48:30.285Z,11.40
2019-01-25T22:53:33.002Z,13.00
2019-01-25T22:59:07.514Z,15.37
2019-01-25T23:04:42.361Z,12.43
2019-01-25T23:10:19.300Z,9.30
2019-01-25T23:15:22.001Z,12.60
2019-01-25T23:20:44.193Z,13.13
2019-01-25T23:26:06.389Z,11.97
2019-01-25T23:31:28.577Z,10.10
2019-01-25T23:36:50.768Z,9.30
2019-01-25T23:41:53.454Z,9.27
2019-01-25T23:47:15.647Z,11.60
2019-01-25T23:52:37.853Z,8.77
2019-01-25T23:58:00.056Z,8.40
